• Join FlightAware (Why Join?)
  • Login
  • US Flag 
12:27AM EST


 

Airport Tracker/Info


-or-


 

Live Flight TrackerFlight Track Log ✈ SWA1969 ✈ 19-Apr-2013 ✈ KMCI - KMDW

Flight Track Log - Related Links

Times and Time Zones

All times are in EDT time to prevent confusion due to time zone crossing. See the SWA1969 flight status page for this flight to view local times or setup timezone preferences in your user account.

Time Position Orientation Groundspeed Altitude Reporting Facility
EDT Latitude Longitude Course Direction KTS MPH feet Rate Location/Type
11:13AM 39.3833 -94.6667 23° Northeast 231 266 4,700  Level Kansas City TRACON
11:14AM 39.4075 -94.6378 43° Northeast 249 287 5,900 3,240 Climbing Kansas City Center
11:15AM 39.4661 -94.5569 47° Northeast 275 316 10,000 2,940 Climbing Kansas City Center
11:16AM 39.5214 -94.4778 48° Northeast 314 361 12,000 2,460 Climbing Kansas City Center
11:17AM 39.5883 -94.3614 53° Northeast 358 412 15,200 2,760 Climbing Kansas City Center
11:18AM 39.6533 -94.2578 51° Northeast 386 444 17,700 2,340 Climbing Kansas City Center
11:19AM 39.7156 -94.1450 54° Northeast 400 460 20,200 2,460 Climbing Kansas City Center
11:20AM 39.7906 -94.0047 55° Northeast 422 486 22,900 2,100 Climbing Kansas City Center
11:21AM 39.8367 -93.8786 65° Northeast 431 496 24,500 1,860 Climbing Kansas City Center
11:22AM 39.8764 -93.6950 74° East 441 507 26,800 1,980 Climbing Kansas City Center
11:23AM 39.9136 -93.5414 72° East 447 514 28,700 1,560 Climbing Kansas City Center
11:24AM 39.9472 -93.3811 75° East 457 526 30,100 1,080 Climbing Kansas City Center
11:25AM 39.9850 -93.2181 73° East 471 542 31,000 420 Climbing Kansas City Center
11:26AM 40.0211 -93.0558 74° East 466 536 31,000  Level Kansas City Center
11:27AM 40.0619 -92.8647 74° East 465 535 31,000  Level Kansas City Center
11:28AM 40.0981 -92.6928 75° East 462 532 31,000  Level Kansas City Center
11:29AM 40.1303 -92.5378 75° East 463 533 31,000  Level Kansas City Center
11:30AM 40.1719 -92.3572 73° East 464 534 31,000  Level Kansas City Center
11:31AM 40.2033 -92.1956 76° East 468 539 31,000  Level Kansas City Center
11:32AM 40.2372 -92.0358 74° East 463 533 31,000  Level Kansas City Center
11:33AM 40.2700 -91.8736 75° East 464 534 31,000  Level Kansas City Center
11:34AM 40.3028 -91.7106 75° East 466 536 31,000  Level Kansas City Center
11:35AM 40.3436 -91.5131 75° East 470 541 31,000  Level Kansas City Center
11:36AM 40.3772 -91.3483 75° East 471 542 31,000  Level Kansas City Center
11:37AM 40.3958 -91.2667 73° East 471 542 31,000  Level Chicago Center
11:38AM 40.4278 -91.1006 76° East 471 542 31,000  Level Chicago Center
11:39AM 40.4614 -90.9353 75° East 470 541 31,000 -180 Level Chicago Center
11:40AM 40.4939 -90.7686 76° East 471 542 30,700 -780 Descending Chicago Center
11:41AM 40.5314 -90.5714 76° East 464 534 29,500 -1,080 Descending Chicago Center
11:42AM 40.5633 -90.4092 75° East 460 529 28,500 -1,020 Descending Chicago Center
11:43AM 40.5931 -90.2558 76° East 437 503 27,500 -1,020 Descending Chicago Center
11:44AM 40.6189 -90.1192 76° East 424 488 26,500 -1,020 Descending Chicago Center
11:45AM 40.6519 -89.9417 76° East 418 481 25,400 -1,260 Descending Chicago Center
11:46AM 40.6783 -89.7953 77° East 413 475 24,000 -1,560 Descending Chicago Center
11:47AM 40.7283 -89.6692 62° Northeast 394 453 22,300 -1,620 Descending Chicago Center
11:48AM 40.7833 -89.5483 59° Northeast 387 445 20,700 -1,560 Descending Chicago Center
11:49AM 40.8392 -89.4264 59° Northeast 387 445 19,100 -1,740 Descending Chicago Center
11:50AM 40.8894 -89.3081 61° Northeast 374 430 17,200 -1,200 Descending Chicago Center
11:51AM 40.9392 -89.1911 61° Northeast 367 422 16,700 -840 Descending Chicago Center
11:52AM 40.9983 -89.0517 61° Northeast 363 418 15,500 -1,080 Descending Chicago Center
11:53AM 41.0456 -88.9397 61° Northeast 358 412 14,500 -1,080 Descending Chicago Center
11:54AM 41.0936 -88.8247 61° Northeast 357 411 13,400 -1,380 Descending Chicago Center
11:55AM 41.1567 -88.7331 48° Northeast 340 391 11,700 -1,620 Descending Chicago Center
11:56AM 41.2283 -88.6558 39° Northeast 331 381 10,100 -1,620 Descending Chicago Center
11:57AM 41.2953 -88.5867 38° Northeast 310 357 8,500 -1,620 Descending Chicago Center
11:59AM 41.3728 -88.5031 39° Northeast 300 345 6,800 -1,260 Descending Chicago Center
12:00PM 41.4358 -88.4356 39° Northeast 293 337 5,900 -900 Descending Chicago Center
12:01PM 41.4836 -88.3542 52° Northeast 293 337 5,000 -1,080 Descending Chicago Center
12:02PM 41.5069 -88.2500 73° East 290 334 3,700 -1,020 Descending Chicago Center
12:03PM 41.5233 -88.1417 79° East 292 336 2,900 -420 Descending Chicago Center
12:04PM 41.5347 -88.0328 82° East 292 336 2,900  Level Chicago Center
12:05PM 41.5383 -87.9258 87° East 288 331 2,900  Level Chicago Center
12:06PM 41.5442 -87.8400 85° East 250 288 2,900  Level Chicago Center
12:07PM 41.5494 -87.7622 85° East 223 257 2,900  Level Chicago Center
12:08PM 41.5536 -87.6672 87° East 216 249 2,900  Level Chicago Center
12:09PM 41.5261 -87.6022 119° Southeast 204 235 2,900  Level Chicago Center
12:10PM 41.5258 -87.5356 90° East 215 247 2,900  Level Chicago Center
12:11PM 41.5644 -87.4831 45° Northeast 209 241 2,900  Level Chicago Center
12:12PM 41.6106 -87.5042 341° North 187 215 2,900  Level Chicago Center
12:13PM 41.6389 -87.5478 311° West 168 193 2,900 -180 Level Chicago Center
12:15PM 41.7050 -87.6400 314° West 158 182 2,400 -180 Descending Chicago Center
12:16PM 41.7444 -87.6631 336° Northwest 174 200 2,400 -120 Level Chicago Center
12:16PM 41.7667 -87.6667 353° North 181 208 2,300 -540 Descending Chicago TRACON
12:17PM 41.8167 -87.7000 334° Northwest 148 170 1,600 -720 Descending Chicago TRACON
12:18PM 41.8000 -87.7333 236° Southwest 129 148 1,000 -720 Descending Chicago TRACON